Time;durP1;ratioP1;P1;durP2;ratioP2;P2;SDS_P1;SDS_P2;PMS_P1;PMS_P2;Temp;Humidity;BMP_temperature;BMP_pressure;BME280_temperature;BME280_humidity;BME280_pressure;Samples;Min_cycle;Max_cycle;Signal;HPM_P1;HPM_P2
2021/10/12 00:01:29;;;;;;;7.97;1.53;;;15.70;99.90;;;;;;5092236;28;20188;-71
2021/10/12 00:03:56;;;;;;;6.80;1.60;;;15.70;99.90;;;;;;5087206;28;20212;-72
2021/10/12 00:06:24;;;;;;;5.47;1.23;;;15.70;99.90;;;;;;5075734;28;20213;-72
2021/10/12 00:08:51;;;;;;;5.20;1.33;;;15.50;99.90;;;;;;5084553;28;20235;-74
2021/10/12 00:11:19;;;;;;;8.30;1.57;;;15.40;99.90;;;;;;5085323;28;20536;-74
2021/10/12 00:13:46;;;;;;;9.23;2.20;;;15.40;99.90;;;;;;5090357;28;20752;-74
2021/10/12 00:16:14;;;;;;;6.77;1.10;;;15.50;99.90;;;;;;5091752;28;20209;-75
2021/10/12 00:18:42;;;;;;;6.60;1.23;;;15.50;99.90;;;;;;5092393;28;20331;-75
2021/10/12 00:21:10;;;;;;;4.63;1.10;;;15.50;99.90;;;;;;5079219;28;20179;-79
2021/10/12 00:23:39;;;;;;;7.77;1.13;;;15.50;99.90;;;;;;5082276;28;20204;-78
2021/10/12 00:26:06;;;;;;;11.07;1.57;;;15.50;99.90;;;;;;5092341;28;20166;-79
2021/10/12 00:28:34;;;;;;;6.87;1.37;;;15.40;99.90;;;;;;5090786;28;20190;-75
2021/10/12 00:31:03;;;;;;;7.00;1.53;;;15.50;99.90;;;;;;5098886;28;20178;-73
2021/10/12 00:33:32;;;;;;;13.90;1.50;;;15.70;99.90;;;;;;5095887;28;20178;-74
2021/10/12 00:35:59;;;;;;;10.57;1.60;;;15.70;99.90;;;;;;5096037;28;20203;-78
2021/10/12 00:38:27;;;;;;;7.30;1.80;;;15.70;99.90;;;;;;5096291;28;20486;-74
2021/10/12 00:40:55;;;;;;;12.40;1.80;;;15.60;99.90;;;;;;5095642;28;20183;-76
2021/10/12 00:43:25;;;;;;;3.53;1.50;;;15.70;99.90;;;;;;5087423;28;20210;-76
2021/10/12 00:45:58;;;;;;;6.53;1.10;;;15.70;99.90;;;;;;5093242;28;20623;-77
2021/10/12 00:48:25;;;;;;;7.67;1.13;;;16.00;99.90;;;;;;5095238;28;20183;-79
2021/10/12 00:50:53;;;;;;;3.33;1.00;;;16.10;99.90;;;;;;5095250;28;20256;-77
2021/10/12 00:53:21;;;;;;;9.90;1.50;;;16.30;99.90;;;;;;5090013;28;20186;-77
2021/10/12 00:55:48;;;;;;;5.83;1.10;;;16.40;99.90;;;;;;5080563;28;20188;-81
2021/10/12 00:58:17;;;;;;;6.53;1.23;;;16.70;99.90;;;;;;5087913;28;20221;-80
2021/10/12 01:00:45;;;;;;;4.90;1.03;;;16.60;99.90;;;;;;5090776;28;20178;-80
2021/10/12 01:03:12;;;;;;;3.17;0.90;;;16.70;99.90;;;;;;5088208;28;20601;-78
2021/10/12 01:05:40;;;;;;;5.83;1.10;;;16.60;99.90;;;;;;5095600;28;20188;-79
2021/10/12 01:08:08;;;;;;;3.43;1.20;;;16.60;99.90;;;;;;5094894;28;20514;-81
2021/10/12 01:10:35;;;;;;;2.87;1.00;;;16.40;99.90;;;;;;5082265;28;20661;-77
2021/10/12 01:13:04;;;;;;;7.93;1.20;;;16.30;99.90;;;;;;5094858;28;20753;-79
2021/10/12 01:15:32;;;;;;;6.37;1.17;;;16.20;99.90;;;;;;5096139;28;20180;-79
2021/10/12 01:18:00;;;;;;;3.40;1.00;;;16.30;99.90;;;;;;5096687;28;20691;-80
2021/10/12 01:20:33;;;;;;;6.83;1.30;;;16.30;99.90;;;;;;5095608;28;20613;-82
2021/10/12 01:23:01;;;;;;;9.57;1.20;;;16.40;99.90;;;;;;5096626;28;20235;-81
2021/10/12 01:25:28;;;;;;;10.50;1.53;;;16.80;99.90;;;;;;5094997;28;20649;-80
2021/10/12 01:27:56;;;;;;;4.80;1.17;;;16.80;99.90;;;;;;5095832;28;20241;-78
2021/10/12 01:30:24;;;;;;;6.90;1.37;;;17.10;99.90;;;;;;5095559;28;20180;-77
2021/10/12 01:32:51;;;;;;;6.40;1.43;;;17.30;99.90;;;;;;5094353;28;20181;-77
2021/10/12 01:35:19;;;;;;;8.63;1.43;;;17.40;99.90;;;;;;5093217;28;20185;-78
2021/10/12 01:37:46;;;;;;;9.37;1.60;;;17.50;99.90;;;;;;5108693;28;20221;-76
2021/10/12 01:40:15;;;;;;;9.93;1.80;;;17.60;99.90;;;;;;5093050;28;20254;-74
2021/10/12 01:42:43;;;;;;;3.97;0.90;;;17.80;99.90;;;;;;5076557;28;20272;-75
2021/10/12 01:45:11;;;;;;;7.70;1.60;;;17.90;99.90;;;;;;5088788;28;20228;-75
2021/10/12 01:47:40;;;;;;;10.63;1.50;;;18.10;99.90;;;;;;5088789;28;20178;-74
2021/10/12 01:50:12;;;;;;;6.23;1.60;;;18.00;99.90;;;;;;5093701;28;20528;-73
2021/10/12 01:52:40;;;;;;;9.17;1.60;;;17.90;99.90;;;;;;5086523;28;20225;-76
2021/10/12 01:55:08;;;;;;;10.47;1.70;;;17.90;99.90;;;;;;5099817;28;20186;-75
2021/10/12 01:57:36;;;;;;;6.60;1.10;;;18.00;99.90;;;;;;5102493;28;20182;-76
2021/10/12 02:00:06;;;;;;;6.70;1.60;;;18.00;99.90;;;;;;5095746;28;20198;-77
2021/10/12 02:02:34;;;;;;;8.23;1.20;;;18.10;99.90;;;;;;5101338;28;20200;-76
2021/10/12 02:05:01;;;;;;;5.13;1.00;;;17.90;99.90;;;;;;5094554;28;20225;-77
2021/10/12 02:07:29;;;;;;;8.37;1.53;;;17.70;99.90;;;;;;5094707;28;20181;-77
2021/10/12 02:09:56;;;;;;;7.53;1.20;;;17.70;99.90;;;;;;5095658;28;20260;-76
2021/10/12 02:12:24;;;;;;;9.23;1.87;;;17.70;99.90;;;;;;5097694;28;20221;-75
2021/10/12 02:14:51;;;;;;;8.33;1.70;;;17.50;99.90;;;;;;5093742;28;20185;-75
2021/10/12 02:17:19;;;;;;;7.37;1.30;;;17.70;99.90;;;;;;5096617;28;20517;-75
2021/10/12 02:19:46;;;;;;;9.30;1.40;;;17.70;99.90;;;;;;5094270;28;20220;-75
2021/10/12 02:22:15;;;;;;;7.23;1.53;;;17.70;99.90;;;;;;5094429;28;20208;-75
2021/10/12 02:24:42;;;;;;;8.97;1.50;;;17.70;99.90;;;;;;5090918;28;20300;-76
2021/10/12 02:27:10;;;;;;;17.13;1.70;;;17.90;99.90;;;;;;5086785;28;20224;-75
2021/10/12 02:29:38;;;;;;;6.03;1.30;;;17.90;99.90;;;;;;5089141;28;20174;-76
2021/10/12 02:32:06;;;;;;;8.43;2.17;;;17.80;99.90;;;;;;5088573;28;20193;-75
2021/10/12 02:34:33;;;;;;;10.43;1.83;;;17.80;99.90;;;;;;5083408;28;20182;-75
2021/10/12 02:37:01;;;;;;;7.43;1.53;;;17.80;99.90;;;;;;5090262;28;20188;-74
2021/10/12 02:39:29;;;;;;;6.47;1.60;;;17.70;99.90;;;;;;5083596;28;20178;-74
2021/10/12 02:41:56;;;;;;;7.30;1.73;;;17.80;99.90;;;;;;5091716;28;20186;-75
2021/10/12 02:44:24;;;;;;;9.33;2.83;;;17.80;99.90;;;;;;5091500;28;20841;-74
2021/10/12 02:46:52;;;;;;;9.17;2.23;;;17.80;99.90;;;;;;5085485;28;20301;-75
2021/10/12 02:49:20;;;;;;;9.27;1.40;;;17.90;99.90;;;;;;5088815;28;20644;-75
2021/10/12 02:51:48;;;;;;;11.00;1.70;;;18.00;99.90;;;;;;5089733;28;20259;-74
2021/10/12 02:54:15;;;;;;;9.47;1.60;;;18.20;99.90;;;;;;5085533;28;20261;-75
2021/10/12 02:56:43;;;;;;;8.30;1.33;;;18.00;99.90;;;;;;5091488;28;20175;-75
2021/10/12 02:59:11;;;;;;;13.90;1.97;;;18.10;99.90;;;;;;5093240;28;20678;-74
2021/10/12 03:01:38;;;;;;;15.23;1.77;;;18.10;99.90;;;;;;5092091;28;20175;-74
2021/10/12 03:04:06;;;;;;;10.93;1.67;;;17.90;99.90;;;;;;5087259;28;20593;-74
2021/10/12 03:06:34;;;;;;;9.40;1.87;;;17.80;99.90;;;;;;5089944;28;20180;-72
2021/10/12 03:09:01;;;;;;;11.77;1.57;;;18.00;99.90;;;;;;5092243;28;20184;-73
2021/10/12 03:11:29;;;;;;;6.20;1.23;;;18.10;99.90;;;;;;5096169;28;20189;-74
2021/10/12 03:13:58;;;;;;;5.37;1.23;;;18.20;99.90;;;;;;5087698;28;20190;-74
2021/10/12 03:16:25;;;;;;;4.63;1.20;;;18.20;99.90;;;;;;5090601;28;20186;-72
2021/10/12 03:18:53;;;;;;;4.77;1.13;;;18.30;99.90;;;;;;5085974;28;20194;-74
2021/10/12 03:21:21;;;;;;;4.43;1.00;;;18.40;99.90;;;;;;5092295;28;20193;-73
2021/10/12 03:23:49;;;;;;;5.60;1.30;;;18.80;99.90;;;;;;5090314;28;20308;-74
2021/10/12 03:26:16;;;;;;;5.67;1.20;;;18.70;99.90;;;;;;5092450;28;20219;-74
2021/10/12 03:28:44;;;;;;;2.57;0.80;;;18.60;99.90;;;;;;5092031;28;20186;-73
2021/10/12 03:31:11;;;;;;;6.93;1.60;;;18.50;99.90;;;;;;5090117;28;20179;-72
2021/10/12 03:33:39;;;;;;;12.13;1.17;;;18.40;99.90;;;;;;5089694;28;20193;-72
2021/10/12 03:36:19;;;;;;;7.10;1.10;;;18.50;99.90;;;;;;5092071;28;20180;-73
2021/10/12 03:38:46;;;;;;;6.87;1.00;;;18.70;99.80;;;;;;5091487;28;20247;-73
2021/10/12 03:41:14;;;;;;;8.57;1.47;;;18.60;99.10;;;;;;5090642;28;20637;-73
2021/10/12 03:43:42;;;;;;;4.77;1.33;;;18.50;99.10;;;;;;5089761;28;20650;-72
2021/10/12 03:46:09;;;;;;;6.57;1.10;;;18.50;98.00;;;;;;5091437;28;20185;-71
2021/10/12 03:48:37;;;;;;;5.10;1.13;;;18.30;99.10;;;;;;5088339;28;20182;-73
2021/10/12 03:51:08;;;;;;;7.40;1.30;;;18.30;99.40;;;;;;5091916;28;20269;-72
2021/10/12 03:53:36;;;;;;;5.93;1.17;;;18.30;99.90;;;;;;5090752;28;20500;-70
2021/10/12 03:56:05;;;;;;;5.20;0.93;;;18.20;99.20;;;;;;5091271;28;20178;-75
2021/10/12 03:58:32;;;;;;;5.23;0.80;;;18.00;99.20;;;;;;5087603;28;20221;-72
2021/10/12 04:01:00;;;;;;;4.60;0.80;;;17.80;99.90;;;;;;5088231;28;20193;-72
2021/10/12 04:03:27;;;;;;;6.07;0.90;;;17.90;99.90;;;;;;5091416;28;20202;-73
2021/10/12 04:05:55;;;;;;;5.77;1.70;;;17.90;99.90;;;;;;5076381;28;20265;-75
2021/10/12 04:08:23;;;;;;;4.40;1.00;;;18.00;99.90;;;;;;5084861;28;20180;-78
2021/10/12 04:10:50;;;;;;;7.97;1.50;;;18.10;99.90;;;;;;5080903;28;20311;-73
2021/10/12 04:13:18;;;;;;;7.73;1.37;;;18.00;99.90;;;;;;5085519;28;20300;-75
2021/10/12 04:15:45;;;;;;;5.83;1.20;;;17.90;99.90;;;;;;5092134;28;20171;-79
2021/10/12 04:18:13;;;;;;;7.50;1.30;;;17.90;99.80;;;;;;5091414;28;20181;-76
2021/10/12 04:20:40;;;;;;;3.90;1.10;;;17.80;99.30;;;;;;5092455;28;20189;-75
2021/10/12 04:23:09;;;;;;;3.83;1.30;;;17.70;99.30;;;;;;5092243;28;20185;-74
2021/10/12 04:25:39;;;;;;;6.97;1.03;;;17.90;99.90;;;;;;5091235;28;20216;-75
2021/10/12 04:28:11;;;;;;;4.70;1.20;;;18.00;99.90;;;;;;5095039;28;20182;-74
2021/10/12 04:30:44;;;;;;;6.47;1.30;;;18.00;99.60;;;;;;5092199;28;20186;-75
2021/10/12 04:33:14;;;;;;;11.33;1.57;;;18.00;98.90;;;;;;5092596;28;20178;-75
2021/10/12 04:35:43;;;;;;;4.43;1.10;;;18.10;98.40;;;;;;5096537;28;20213;-74
2021/10/12 04:38:10;;;;;;;4.93;1.10;;;18.10;98.50;;;;;;5092301;28;20281;-73
2021/10/12 04:40:40;;;;;;;5.27;0.90;;;18.30;98.10;;;;;;5099267;28;20170;-74
2021/10/12 04:43:09;;;;;;;3.90;1.00;;;18.20;97.40;;;;;;5092058;28;20178;-74
2021/10/12 04:45:39;;;;;;;4.73;1.17;;;18.20;97.20;;;;;;5092394;28;20209;-75
2021/10/12 04:48:06;;;;;;;5.97;1.20;;;18.10;97.40;;;;;;5092226;28;20296;-76
2021/10/12 04:50:34;;;;;;;5.17;1.07;;;18.00;97.60;;;;;;5092370;28;20645;-74
2021/10/12 04:53:02;;;;;;;3.57;1.00;;;17.90;97.90;;;;;;5089286;28;20199;-73
2021/10/12 04:55:30;;;;;;;6.00;1.07;;;18.20;98.50;;;;;;5090283;28;20585;-74
2021/10/12 04:57:59;;;;;;;1.70;0.90;;;18.10;98.40;;;;;;5088402;28;20177;-75
2021/10/12 05:00:26;;;;;;;7.03;1.03;;;17.90;99.20;;;;;;5091093;28;20186;-74
2021/10/12 05:02:54;;;;;;;7.20;1.50;;;17.90;99.30;;;;;;5092180;28;20167;-75
2021/10/12 05:05:21;;;;;;;13.00;1.93;;;17.80;99.80;;;;;;5092092;28;20204;-76
2021/10/12 05:07:49;;;;;;;5.27;1.13;;;17.80;99.90;;;;;;5091470;28;20175;-76
2021/10/12 05:10:16;;;;;;;5.40;0.70;;;17.70;99.90;;;;;;5091690;28;20306;-75
2021/10/12 05:12:44;;;;;;;21.10;12.83;;;17.60;99.90;;;;;;5091503;28;20277;-76
2021/10/12 05:15:17;;;;;;;11.60;3.93;;;17.70;99.90;;;;;;5091721;28;20188;-78
2021/10/12 05:17:47;;;;;;;10.00;2.13;;;17.80;99.90;;;;;;5087235;28;20226;-79
2021/10/12 05:20:15;;;;;;;7.10;1.83;;;17.80;99.80;;;;;;5095949;28;20235;-76
2021/10/12 05:22:42;;;;;;;8.90;1.77;;;17.80;99.50;;;;;;5095894;28;20192;-77
2021/10/12 05:25:10;;;;;;;7.17;2.30;;;17.90;99.70;;;;;;5094565;28;20619;-79
2021/10/12 05:27:38;;;;;;;10.30;2.27;;;17.80;99.50;;;;;;5095442;28;20182;-77
2021/10/12 05:30:08;;;;;;;14.90;1.97;;;17.90;99.90;;;;;;5095671;28;20224;-77
2021/10/12 05:32:36;;;;;;;4.63;1.40;;;17.80;99.90;;;;;;5095440;28;20169;-75
2021/10/12 05:35:08;;;;;;;6.00;1.80;;;17.80;99.90;;;;;;5095373;28;20188;-76
2021/10/12 05:37:36;;;;;;;11.93;6.60;;;17.90;99.80;;;;;;5095715;28;20567;-76
2021/10/12 05:40:05;;;;;;;7.70;2.27;;;17.90;99.40;;;;;;5095669;28;20186;-75
2021/10/12 05:42:32;;;;;;;5.10;1.10;;;18.10;98.40;;;;;;5095528;28;20177;-76
2021/10/12 05:45:00;;;;;;;7.33;1.93;;;18.70;98.60;;;;;;5095382;28;20217;-73
2021/10/12 05:47:28;;;;;;;9.97;1.40;;;19.40;98.10;;;;;;5089604;28;20167;-75
2021/10/12 05:49:55;;;;;;;8.60;1.20;;;19.10;98.30;;;;;;5090983;28;20232;-75
2021/10/12 05:52:24;;;;;;;4.60;0.73;;;19.10;98.40;;;;;;5092908;28;20171;-75
2021/10/12 05:55:10;;;;;;;10.10;1.43;;;18.80;97.40;;;;;;5089030;28;20182;-73
2021/10/12 05:57:54;;;;;;;4.87;0.80;;;18.50;98.20;;;;;;5078845;28;20171;-73
2021/10/12 06:00:21;;;;;;;4.57;1.00;;;18.60;98.60;;;;;;5088474;28;20176;-71
2021/10/12 06:02:49;;;;;;;8.23;1.13;;;18.50;98.70;;;;;;5094647;28;20277;-76
2021/10/12 06:05:16;;;;;;;7.07;1.17;;;18.30;99.20;;;;;;5082288;28;20226;-72
2021/10/12 06:07:43;;;;;;;7.47;1.57;;;18.20;99.50;;;;;;5092432;28;20261;-74
2021/10/12 06:10:11;;;;;;;5.77;0.90;;;18.10;99.40;;;;;;5093256;28;20202;-76
2021/10/12 06:12:38;;;;;;;5.53;1.00;;;18.00;99.30;;;;;;5093380;28;20257;-75
2021/10/12 06:15:06;;;;;;;5.60;1.30;;;18.10;99.20;;;;;;5094667;28;20178;-75
2021/10/12 06:17:33;;;;;;;7.13;1.23;;;18.30;99.00;;;;;;5094375;28;20173;-75
2021/10/12 06:20:01;;;;;;;2.73;0.90;;;18.30;99.40;;;;;;5092459;28;20181;-73
2021/10/12 06:22:28;;;;;;;6.23;1.33;;;18.20;99.70;;;;;;5089380;28;20267;-75
2021/10/12 06:24:55;;;;;;;6.93;1.10;;;18.00;99.90;;;;;;5095179;28;20633;-76
2021/10/12 06:27:23;;;;;;;5.83;0.90;;;17.80;99.80;;;;;;5094024;28;20648;-75
2021/10/12 06:29:51;;;;;;;9.03;1.10;;;17.80;99.10;;;;;;5099301;28;20193;-75
2021/10/12 06:32:18;;;;;;;2.43;0.77;;;17.70;98.60;;;;;;5097842;28;20257;-74
2021/10/12 06:34:45;;;;;;;3.83;0.90;;;17.70;98.70;;;;;;5094037;28;20202;-74
2021/10/12 06:37:13;;;;;;;6.93;1.60;;;17.60;98.70;;;;;;5089723;28;20174;-72
2021/10/12 06:39:40;;;;;;;12.07;1.20;;;17.50;99.90;;;;;;5086707;28;20648;-73
2021/10/12 06:42:07;;;;;;;5.10;1.57;;;17.50;99.90;;;;;;5099388;28;20182;-74
2021/10/12 06:44:35;;;;;;;6.90;0.97;;;17.60;99.90;;;;;;5088446;28;20253;-73
2021/10/12 06:47:03;;;;;;;7.27;1.33;;;17.70;99.90;;;;;;5084583;28;20186;-73
2021/10/12 06:49:31;;;;;;;4.40;1.20;;;17.80;99.90;;;;;;5084987;28;20192;-76
2021/10/12 06:51:58;;;;;;;4.97;1.20;;;17.70;99.80;;;;;;5091490;28;20214;-74
2021/10/12 06:54:25;;;;;;;8.47;1.50;;;17.50;99.90;;;;;;5081881;28;20200;-74
2021/10/12 06:56:56;;;;;;;9.37;1.57;;;17.40;99.90;;;;;;5093390;28;20194;-76
2021/10/12 06:59:27;;;;;;;10.73;3.03;;;17.50;99.90;;;;;;5093226;28;20284;-73
2021/10/12 07:01:55;;;;;;;8.40;2.80;;;17.40;99.90;;;;;;5092133;28;20214;-74
2021/10/12 07:04:23;;;;;;;8.00;2.53;;;17.30;99.90;;;;;;5078615;28;20217;-72
2021/10/12 07:06:50;;;;;;;4.30;1.17;;;17.20;99.90;;;;;;5094024;28;20744;-74
2021/10/12 07:09:18;;;;;;;4.10;1.10;;;17.10;99.90;;;;;;5079829;28;20177;-70
2021/10/12 07:11:46;;;;;;;6.57;1.40;;;17.10;99.90;;;;;;5081334;28;20651;-74
2021/10/12 07:14:14;;;;;;;2.77;1.03;;;17.10;99.90;;;;;;5087525;28;20248;-71
2021/10/12 07:16:42;;;;;;;19.10;7.97;;;17.10;99.90;;;;;;5081968;28;20640;-74
2021/10/12 07:19:09;;;;;;;24.80;6.40;;;17.10;99.90;;;;;;5093419;28;20179;-70
2021/10/12 07:21:37;;;;;;;11.43;2.47;;;17.00;99.90;;;;;;5092695;28;20185;-77
2021/10/12 07:24:05;;;;;;;5.60;1.13;;;17.00;99.90;;;;;;5092004;28;20205;-75
2021/10/12 07:26:32;;;;;;;9.57;2.20;;;17.00;99.90;;;;;;5091852;28;20190;-74
2021/10/12 07:28:59;;;;;;;14.80;2.50;;;16.90;99.90;;;;;;5093655;28;20682;-73
2021/10/12 07:31:27;;;;;;;8.93;1.37;;;16.90;99.90;;;;;;5093651;28;20201;-73
2021/10/12 07:33:54;;;;;;;6.97;1.30;;;16.80;99.90;;;;;;5093132;28;20191;-73
2021/10/12 07:36:22;;;;;;;11.73;2.50;;;16.80;99.90;;;;;;5093172;28;20177;-73
2021/10/12 07:38:49;;;;;;;7.47;1.57;;;16.70;99.90;;;;;;5089990;28;20198;-74
2021/10/12 07:41:17;;;;;;;6.07;1.47;;;16.70;99.90;;;;;;5083495;28;20197;-72
2021/10/12 07:43:44;;;;;;;7.30;1.67;;;16.70;99.90;;;;;;5072991;28;20303;-75
2021/10/12 07:46:11;;;;;;;6.17;1.53;;;16.70;99.90;;;;;;5078483;28;20229;-73
2021/10/12 07:48:39;;;;;;;6.77;1.50;;;16.60;99.90;;;;;;5089111;28;20191;-73
2021/10/12 07:51:07;;;;;;;6.07;1.33;;;16.60;99.90;;;;;;5092167;28;20658;-72
2021/10/12 07:53:37;;;;;;;3.73;1.37;;;16.50;99.90;;;;;;5091883;28;20224;-73
2021/10/12 07:56:11;;;;;;;5.10;0.90;;;16.50;99.90;;;;;;5092563;28;20548;-74
2021/10/12 07:58:38;;;;;;;2.87;1.07;;;16.50;99.90;;;;;;5089925;28;20176;-74
2021/10/12 08:01:06;;;;;;;4.70;1.00;;;16.50;99.90;;;;;;5092272;28;20185;-74
2021/10/12 08:03:33;;;;;;;4.83;1.20;;;16.50;99.90;;;;;;5092383;28;20209;-71
2021/10/12 08:06:00;;;;;;;7.70;1.20;;;16.40;99.90;;;;;;5089225;28;20322;-74
2021/10/12 08:08:29;;;;;;;3.30;1.03;;;16.40;99.90;;;;;;5092885;28;20171;-73
2021/10/12 08:10:57;;;;;;;7.07;1.47;;;16.40;99.90;;;;;;5089232;28;20626;-74
2021/10/12 08:13:27;;;;;;;6.03;1.50;;;16.40;99.90;;;;;;5071566;28;20220;-74
2021/10/12 08:15:58;;;;;;;5.30;1.23;;;16.40;99.90;;;;;;5075298;28;20712;-74
2021/10/12 08:18:26;;;;;;;3.90;1.20;;;16.30;99.90;;;;;;5092871;28;20174;-73
2021/10/12 08:20:53;;;;;;;4.63;0.97;;;16.30;99.90;;;;;;5092514;28;20242;-73
2021/10/12 08:23:20;;;;;;;7.20;1.40;;;16.30;99.90;;;;;;5091356;28;20204;-73
2021/10/12 08:25:48;;;;;;;3.50;1.30;;;16.30;99.90;;;;;;5092172;28;20252;-73
2021/10/12 08:28:15;;;;;;;4.27;1.20;;;16.30;99.90;;;;;;5092773;28;20254;-73
2021/10/12 08:30:43;;;;;;;3.10;0.90;;;16.20;99.90;;;;;;5090911;28;20178;-73
2021/10/12 08:33:11;;;;;;;5.43;1.70;;;16.30;99.90;;;;;;5092229;28;20652;-74
2021/10/12 08:35:38;;;;;;;5.63;1.47;;;16.20;99.90;;;;;;5092539;28;20174;-75
2021/10/12 08:38:06;;;;;;;7.27;1.40;;;16.20;99.90;;;;;;5092458;28;20189;-74
2021/10/12 08:40:33;;;;;;;6.57;1.77;;;16.20;99.90;;;;;;5092414;28;20174;-72
2021/10/12 08:43:00;;;;;;;5.80;1.57;;;16.20;99.90;;;;;;5092381;28;20244;-73
2021/10/12 08:45:30;;;;;;;3.13;1.50;;;16.20;99.90;;;;;;5089585;28;20665;-72
2021/10/12 08:47:58;;;;;;;5.20;1.30;;;16.20;99.90;;;;;;5083535;28;20175;-74
2021/10/12 08:50:26;;;;;;;9.23;1.63;;;16.20;99.90;;;;;;5092258;28;20206;-74
2021/10/12 08:52:53;;;;;;;8.90;1.70;;;16.20;99.90;;;;;;5076857;28;20649;-73
2021/10/12 08:55:21;;;;;;;7.30;1.30;;;16.10;99.90;;;;;;5087249;28;20194;-73
2021/10/12 08:57:49;;;;;;;2.83;1.00;;;16.10;99.90;;;;;;5085785;28;20285;-74
2021/10/12 09:00:18;;;;;;;9.70;1.37;;;16.10;99.90;;;;;;5095792;28;20232;-74
2021/10/12 09:05:59;;;;;;;7.30;1.30;;;16.10;99.90;;;;;;5083676;28;20207;-74
2021/10/12 09:08:49;;;;;;;8.43;1.53;;;16.10;99.90;;;;;;5091329;28;20176;-73
2021/10/12 09:11:24;;;;;;;6.83;1.60;;;16.10;99.90;;;;;;5090223;28;20228;-74
2021/10/12 09:13:58;;;;;;;6.83;1.40;;;16.10;99.90;;;;;;5085284;28;20238;-73
2021/10/12 09:16:34;;;;;;;3.27;0.90;;;16.10;99.90;;;;;;5074235;28;20179;-73
2021/10/12 09:19:04;;;;;;;11.83;1.80;;;16.00;99.90;;;;;;5073695;28;20182;-75
2021/10/12 09:21:35;;;;;;;2.97;1.27;;;16.00;99.90;;;;;;5084888;28;20191;-73
2021/10/12 09:24:14;;;;;;;8.83;1.80;;;16.00;99.90;;;;;;5082286;28;20210;-75
2021/10/12 09:26:48;;;;;;;6.37;1.43;;;16.00;99.90;;;;;;5095787;28;20231;-74
2021/10/12 09:29:28;;;;;;;11.43;1.50;;;16.00;99.90;;;;;;5094986;28;20578;-73
2021/10/12 09:31:57;;;;;;;6.07;1.30;;;16.00;99.90;;;;;;5088593;28;20225;-73
2021/10/12 09:34:24;;;;;;;4.27;1.03;;;16.00;99.90;;;;;;5095168;28;20178;-74
2021/10/12 09:36:53;;;;;;;5.33;1.10;;;16.00;99.90;;;;;;5094227;28;20309;-74
2021/10/12 09:39:35;;;;;;;4.30;1.00;;;16.00;99.90;;;;;;5095315;28;20237;-74
2021/10/12 09:42:05;;;;;;;5.27;1.10;;;16.00;99.90;;;;;;5094437;28;20617;-74
2021/10/12 09:44:34;;;;;;;7.37;1.10;;;16.10;99.90;;;;;;5094980;28;20207;-73
2021/10/12 09:47:08;;;;;;;4.00;1.33;;;16.00;99.90;;;;;;5081121;28;20182;-75
2021/10/12 09:49:37;;;;;;;4.60;1.43;;;16.00;99.90;;;;;;5095368;28;20576;-74
2021/10/12 09:52:15;;;;;;;3.80;1.00;;;16.10;99.90;;;;;;5094608;28;20254;-74
2021/10/12 09:54:52;;;;;;;6.87;1.33;;;16.00;99.90;;;;;;5093917;28;20201;-75
2021/10/12 09:57:21;;;;;;;9.40;1.20;;;16.00;99.90;;;;;;5081681;28;20182;-75
2021/10/12 09:59:50;;;;;;;7.47;1.20;;;16.00;99.90;;;;;;5095142;28;20265;-76
2021/10/12 10:02:23;;;;;;;1.80;1.10;;;16.00;99.90;;;;;;5094915;28;20529;-76
2021/10/12 10:04:53;;;;;;;4.57;1.40;;;16.00;99.90;;;;;;5093909;28;20218;-75
2021/10/12 10:07:36;;;;;;;3.77;0.97;;;16.00;99.90;;;;;;5090583;28;20175;-74
2021/10/12 10:10:05;;;;;;;8.93;1.57;;;16.00;99.90;;;;;;5094521;28;20178;-75
2021/10/12 10:12:36;;;;;;;5.50;1.10;;;16.00;99.90;;;;;;5078935;28;20218;-75
2021/10/12 10:15:04;;;;;;;4.60;1.10;;;16.00;99.90;;;;;;5094915;28;20184;-74
2021/10/12 10:17:32;;;;;;;8.83;1.33;;;16.00;99.90;;;;;;5094659;28;20660;-75
2021/10/12 10:20:03;;;;;;;8.40;1.30;;;16.00;99.90;;;;;;5091572;28;20186;-73
2021/10/12 10:22:43;;;;;;;4.50;1.10;;;16.00;99.90;;;;;;5094741;28;20172;-75
2021/10/12 10:25:29;;;;;;;7.40;1.10;;;16.00;99.90;;;;;;5093807;28;20218;-74
2021/10/12 10:28:17;;;;;;;6.93;1.20;;;16.00;99.90;;;;;;5094175;28;20648;-73
2021/10/12 10:30:57;;;;;;;4.10;0.80;;;16.00;99.90;;;;;;5094576;28;22174;-77
2021/10/12 10:33:33;;;;;;;5.63;1.30;;;16.00;99.90;;;;;;5085383;28;20220;-73
2021/10/12 10:36:05;;;;;;;5.67;1.33;;;16.00;99.90;;;;;;5093882;28;20186;-74
2021/10/12 10:38:45;;;;;;;8.83;1.20;;;16.00;99.90;;;;;;5089489;28;20277;-73
2021/10/12 10:41:15;;;;;;;4.40;1.40;;;16.00;99.90;;;;;;5093454;28;20265;-73
2021/10/12 10:44:00;;;;;;;6.47;1.10;;;16.00;99.90;;;;;;5093861;28;20529;-75
2021/10/12 10:46:36;;;;;;;10.43;1.50;;;16.00;99.90;;;;;;5094173;28;20241;-75
2021/10/12 10:49:20;;;;;;;8.50;2.57;;;16.00;99.90;;;;;;5094021;28;20204;-75
2021/10/12 10:52:01;;;;;;;4.80;1.70;;;16.00;99.90;;;;;;5074358;28;20171;-75
2021/10/12 10:54:38;;;;;;;7.63;2.30;;;16.00;99.90;;;;;;5089542;28;20593;-74
2021/10/12 10:57:19;;;;;;;6.83;1.17;;;16.00;99.90;;;;;;5094202;28;20174;-74
2021/10/12 11:00:10;;;;;;;4.77;1.03;;;16.00;99.90;;;;;;5093697;28;20200;-75
2021/10/12 11:02:44;;;;;;;6.13;2.03;;;16.00;99.90;;;;;;5085694;28;20217;-74
2021/10/12 11:05:36;;;;;;;2.80;1.17;;;16.00;99.90;;;;;;5093761;28;20210;-75
2021/10/12 11:08:15;;;;;;;4.07;0.90;;;15.90;99.90;;;;;;5093583;28;20185;-74
2021/10/12 11:10:44;;;;;;;7.63;1.17;;;15.90;99.90;;;;;;5093455;28;20174;-75
2021/10/12 11:13:12;;;;;;;7.17;0.93;;;15.90;99.90;;;;;;5083204;28;20232;-73
2021/10/12 11:15:52;;;;;;;6.07;1.43;;;15.90;99.90;;;;;;5092440;28;20193;-73
2021/10/12 11:18:20;;;;;;;2.30;1.00;;;15.90;99.90;;;;;;5093712;28;20538;-75
2021/10/12 11:20:51;;;;;;;4.20;1.00;;;15.90;99.90;;;;;;5078744;28;20463;-74
2021/10/12 11:23:32;;;;;;;8.80;1.30;;;15.90;99.90;;;;;;5092596;28;20184;-74
2021/10/12 11:26:11;;;;;;;6.80;1.57;;;15.90;99.90;;;;;;5092949;28;20186;-73
2021/10/12 11:28:41;;;;;;;4.60;0.93;;;15.90;99.90;;;;;;5092504;28;20178;-74
2021/10/12 11:31:14;;;;;;;3.73;1.20;;;15.90;99.90;;;;;;5080590;28;20215;-74
2021/10/12 11:33:46;;;;;;;7.37;1.10;;;15.90;99.90;;;;;;5091228;28;20618;-73
2021/10/12 11:36:17;;;;;;;5.80;1.30;;;15.90;99.90;;;;;;5090832;28;20213;-75
2021/10/12 11:38:51;;;;;;;4.00;0.97;;;15.90;99.90;;;;;;5090769;28;20192;-73
2021/10/12 11:41:21;;;;;;;4.80;1.00;;;15.90;99.90;;;;;;5078366;28;20197;-75
2021/10/12 11:43:50;;;;;;;5.10;1.27;;;15.90;99.90;;;;;;5092201;28;20662;-74
2021/10/12 11:46:23;;;;;;;2.93;1.03;;;15.90;99.90;;;;;;5078608;28;20273;-74
2021/10/12 11:48:50;;;;;;;7.33;0.93;;;15.90;99.90;;;;;;5092185;28;20253;-72
2021/10/12 11:51:19;;;;;;;4.80;0.93;;;15.90;99.90;;;;;;5092407;28;20179;-73
2021/10/12 11:53:47;;;;;;;9.63;1.30;;;15.90;99.90;;;;;;5091737;28;20186;-72
2021/10/12 11:56:16;;;;;;;6.23;1.10;;;15.80;99.90;;;;;;5093099;28;20656;-72
2021/10/12 11:58:43;;;;;;;4.33;1.03;;;15.90;99.90;;;;;;5092379;28;20619;-72
2021/10/12 12:01:16;;;;;;;5.67;1.37;;;15.90;99.90;;;;;;5089801;28;20190;-72
2021/10/12 12:03:43;;;;;;;7.77;1.00;;;15.80;99.90;;;;;;5092576;28;20256;-72
2021/10/12 12:06:11;;;;;;;5.07;0.90;;;15.80;99.90;;;;;;5090141;28;20882;-71
2021/10/12 12:08:41;;;;;;;5.63;1.20;;;15.80;99.90;;;;;;5093183;28;20190;-73
2021/10/12 12:11:08;;;;;;;4.37;0.97;;;15.80;99.90;;;;;;5092368;28;20185;-72
2021/10/12 12:13:37;;;;;;;2.93;1.07;;;15.80;99.90;;;;;;5085422;28;20259;-71
2021/10/12 12:16:04;;;;;;;8.10;1.17;;;15.80;99.90;;;;;;5092626;28;20258;-71
2021/10/12 12:18:39;;;;;;;6.57;1.00;;;15.80;99.90;;;;;;5092627;28;20206;-73
2021/10/12 12:21:07;;;;;;;4.03;1.00;;;15.80;99.90;;;;;;5080355;28;20182;-75
2021/10/12 12:23:48;;;;;;;6.20;1.03;;;15.80;99.90;;;;;;5091628;28;20991;-74
2021/10/12 12:26:27;;;;;;;6.77;1.07;;;15.90;99.90;;;;;;5084737;28;20202;-73
2021/10/12 12:29:14;;;;;;;5.50;1.20;;;15.80;99.90;;;;;;5095050;28;20184;-74
2021/10/12 12:31:57;;;;;;;5.27;1.00;;;15.80;99.90;;;;;;5098365;28;20217;-74
2021/10/12 12:34:38;;;;;;;7.33;1.30;;;15.90;99.90;;;;;;5099585;28;20734;-72
2021/10/12 12:37:06;;;;;;;9.60;1.20;;;15.80;99.90;;;;;;5098249;28;20181;-72
2021/10/12 12:39:43;;;;;;;2.47;0.77;;;15.90;99.90;;;;;;5097165;28;20277;-72
2021/10/12 12:42:38;;;;;;;4.20;0.90;;;15.90;99.90;;;;;;5099823;28;20185;-71
2021/10/12 12:45:23;;;;;;;3.83;0.90;;;15.80;99.90;;;;;;5084905;28;20608;-71
2021/10/12 12:48:02;;;;;;;5.00;1.10;;;15.80;99.90;;;;;;5098802;28;20528;-74
2021/10/12 12:50:37;;;;;;;4.47;1.10;;;15.80;99.90;;;;;;5098012;28;20261;-74
2021/10/12 12:53:07;;;;;;;6.30;1.20;;;15.80;99.90;;;;;;5097047;28;20648;-74
2021/10/12 12:55:45;;;;;;;4.77;0.93;;;15.70;99.90;;;;;;5084886;28;20180;-74
2021/10/12 12:58:14;;;;;;;4.60;1.13;;;15.70;99.90;;;;;;5096267;28;20187;-73
2021/10/12 13:00:58;;;;;;;5.10;0.90;;;15.70;99.90;;;;;;5094751;28;20171;-73
2021/10/12 13:03:26;;;;;;;9.83;1.20;;;15.70;99.90;;;;;;5099091;28;20180;-75